Kakushu Maru — JG5688 — position and weather

sailwx.info

Track history (hours):
 
Tides and Currents Weather Stations Pressure Air Temp Water Temp Dewpoint Dewpoint Depression Visibility Wind Speed Wind Dir Waves Ship Positions

Kakushu Maru

Last reported at 2017-Mar-23 08:04 UTC. Time now 2017-Mar-23 10:35 UTC.
Position N 34°05' E 132°39'.

Length 105 m; draft 4.8 m.

Type: Tanker. MMSI: 431101016.

Date/timePositionNaut miles runAvg speedWind from/ knotsBaromVisibWave heightAir tempDewpointWater temp
2017-Mar-23 08:04N 34°05' E 132°39'10 0.4
2017-Mar-22 07:32N 33°58' E 132°31'1414.8
2017-Mar-22 06:34N 33°47' E 132°19'  
2017-Mar-17 07:27N 34°35' E 134°52'910.6
2017-Mar-17 06:33N 34°36' E 135°03'1412.9
2017-Mar-17 05:28N 34°22' E 135°01'1413.5
2017-Mar-17 04:27N 34°09' E 134°60'22611.3
2017-Mar-16 08:32N 34°56' E 139°28'1414.3
2017-Mar-16 07:33N 35°05' E 139°41'1212.3
2017-Mar-16 06:33N 35°17' E 139°45'7 6.5
2017-Mar-16 05:33N 35°24' E 139°44'0 0.0
2017-Mar-16 04:33N 35°24' E 139°44'1 1.0
2017-Mar-16 03:33N 35°24' E 139°45'7 6.4
2017-Mar-16 02:32N 35°31' E 139°46'0 0.0
2017-Mar-16 01:29N 35°31' E 139°46'0 0.0
2017-Mar-16 00:32N 35°31' E 139°46'0 0.0
2017-Mar-15 23:32N 35°31' E 139°46'1 1.3
2017-Mar-15 22:33N 35°30' E 139°45'6 6.0
2017-Mar-15 21:33N 35°24' E 139°44'0 0.1
2017-Mar-15 20:31N 35°24' E 139°44'0 0.0
2017-Mar-15 19:31N 35°24' E 139°44'0 0.0
2017-Mar-15 18:31N 35°24' E 139°44'0 0.0
2017-Mar-15 17:31N 35°24' E 139°44'0 0.1
2017-Mar-15 16:31N 35°24' E 139°44'0 0.0
2017-Mar-15 15:31N 35°24' E 139°44'0 0.0
2017-Mar-15 14:28N 35°24' E 139°44'0 0.0
2017-Mar-15 13:31N 35°24' E 139°44'3 3.5
2017-Mar-15 12:33N 35°21' E 139°43'1111.3
2017-Mar-15 11:33N 35°10' E 139°46'1413.2
2017-Mar-15 10:32N 34°59' E 139°35'234 4.9
2017-Mar-13 10:33N 34°07' E 134°59'1413.7
2017-Mar-13 09:33N 34°21' E 134°59'1414.0
2017-Mar-13 08:33N 34°33' E 135°07'  
Track history (hours):
 
Tides and Currents Weather Stations Pressure Air Temp Water Temp Dewpoint Dewpoint Depression Visibility Wind Speed Wind Dir Waves Ship Positions

Kakushu Maru

Last reported at 2017-Mar-23 08:04 UTC. Time now 2017-Mar-23 10:35 UTC.
Position N 34°05' E 132°39'.

Length 105 m; draft 4.8 m.

Type: Tanker. MMSI: 431101016.

Date/timePositionNaut miles runAvg speedWind from/ knotsBaromVisibWave heightAir tempDewpointWater temp
2017-Mar-23 08:04N 34°05' E 132°39'10 0.4
2017-Mar-22 07:32N 33°58' E 132°31'1414.8
2017-Mar-22 06:34N 33°47' E 132°19'  
2017-Mar-17 07:27N 34°35' E 134°52'910.6
2017-Mar-17 06:33N 34°36' E 135°03'1412.9
2017-Mar-17 05:28N 34°22' E 135°01'1413.5
2017-Mar-17 04:27N 34°09' E 134°60'22611.3
2017-Mar-16 08:32N 34°56' E 139°28'1414.3
2017-Mar-16 07:33N 35°05' E 139°41'1212.3
2017-Mar-16 06:33N 35°17' E 139°45'7 6.5
2017-Mar-16 05:33N 35°24' E 139°44'0 0.0
2017-Mar-16 04:33N 35°24' E 139°44'1 1.0
2017-Mar-16 03:33N 35°24' E 139°45'7 6.4
2017-Mar-16 02:32N 35°31' E 139°46'0 0.0
2017-Mar-16 01:29N 35°31' E 139°46'0 0.0
2017-Mar-16 00:32N 35°31' E 139°46'0 0.0
2017-Mar-15 23:32N 35°31' E 139°46'1 1.3
2017-Mar-15 22:33N 35°30' E 139°45'6 6.0
2017-Mar-15 21:33N 35°24' E 139°44'0 0.1
2017-Mar-15 20:31N 35°24' E 139°44'0 0.0
2017-Mar-15 19:31N 35°24' E 139°44'0 0.0
2017-Mar-15 18:31N 35°24' E 139°44'0 0.0
2017-Mar-15 17:31N 35°24' E 139°44'0 0.1
2017-Mar-15 16:31N 35°24' E 139°44'0 0.0
2017-Mar-15 15:31N 35°24' E 139°44'0 0.0
2017-Mar-15 14:28N 35°24' E 139°44'0 0.0
2017-Mar-15 13:31N 35°24' E 139°44'3 3.5
2017-Mar-15 12:33N 35°21' E 139°43'1111.3
2017-Mar-15 11:33N 35°10' E 139°46'1413.2
2017-Mar-15 10:32N 34°59' E 139°35'234 4.9
2017-Mar-13 10:33N 34°07' E 134°59'1413.7
2017-Mar-13 09:33N 34°21' E 134°59'1414.0
2017-Mar-13 08:33N 34°33' E 135°07'  

Dump ship's entire track history